Airfield :
LOGIN :

Register | Disclaimer

   EN    FR    IT 

 










Legend :    VFR   Marginal VFR   IFR   Intensive IFR   Very Intensive IFR
Visi :
Ceiling :
>= 8 km
>= 3000ft
5 to 8 km
1000 to 3000 ft
1500m to 5 km
500 to 1000 ft
800 to 1500m
200 to 500 ft
< 800m
< 200 ft
Symbols :   Thunderstorms  Fog  Heavy snow  Heavy precipitations  Wind > 20 kt
SIGMETs :     Misc.  Thunderstorms  Icing  Turbulence  Mountain Waves  Volcanic Ashes






- Airport Elevation : 600 ft
- IATA code : VIE


LOWW - Vienna Schwechat

CURRENT METAR :
  • 221320Z 36011KT CAVOK 22/07 Q1014 NOSIG

EXPIRED METARs :
  • 221250Z 32010KT 290V020 CAVOK 22/07 Q1014 NOSIG
  • 221220Z 36011KT 310V040 CAVOK 22/08 Q1014 NOSIG
  • 221150Z 34010KT 300V020 CAVOK 21/07 Q1014 NOSIG
  • 221120Z 35011KT 310V010 CAVOK 22/08 Q1015 NOSIG
  • 221050Z 33011KT 290V360 9999 FEW050 21/07 Q1015 NOSIG

TAF TAF LOWW
Valid from the 22 at 12:00 until the 23 at 18:00 UTC


221115Z 2212/2318 35012KT CAVOK TX24/2314Z TN10/2303Z
BECMG 2220/2222 08003KT
BECMG 2307/2309 14012KT



MET'MAP, your aeronautical weather chart ! - Copyright ORBIFLY December 2007 - Disclaimer

ORBIFLY MET'MAP TEAM :

Programming & Development : Alexandra Zaïnal
Original concept : Baudouin d'Aumeries
Technical & hardware support : Manuel Goepfert
Assistance : Marc-Olivier Méhu

Contact : metmap@orbifly.com




SOURCES & CREDITS :

   NOAA